Time;durP1;ratioP1;P1;durP2;ratioP2;P2;SDS_P1;SDS_P2;PMS_P1;PMS_P2;Temp;Humidity;BMP_temperature;BMP_pressure;BME280_temperature;BME280_humidity;BME280_pressure;Samples;Min_cycle;Max_cycle;Signal;HPM_P1;HPM_P2
2022/09/01 00:00:54;;;;;;;0.20;0.20;;;;;;;18.09;61.84;102441.81;1990370;29;20058;-70
2022/09/01 00:01:56;;;;;;;0.20;0.20;;;;;;;18.08;61.89;102442.94;1989074;29;20062;-69
2022/09/01 00:02:59;;;;;;;0.30;0.30;;;;;;;18.08;61.77;102439.41;1981237;29;20135;-69
2022/09/01 00:04:03;;;;;;;0.30;0.30;;;;;;;18.00;61.48;102443.91;1983127;29;20055;-69
2022/09/01 00:05:07;;;;;;;0.30;0.30;;;;;;;18.01;61.87;102447.44;1980475;29;20501;-69
2022/09/01 00:06:10;;;;;;;0.20;0.20;;;;;;;17.92;61.91;102444.88;1979796;29;20131;-69
2022/09/01 00:07:14;;;;;;;0.30;0.30;;;;;;;17.96;61.84;102447.69;1994246;29;20066;-69
2022/09/01 00:08:16;;;;;;;0.20;0.20;;;;;;;17.93;61.72;102441.78;1986244;29;20058;-69
2022/09/01 00:09:22;;;;;;;0.20;0.20;;;;;;;17.92;61.79;102439.41;1982449;29;20432;-69
2022/09/01 00:10:24;;;;;;;0.20;0.20;;;;;;;17.89;61.59;102440.09;1985672;29;20464;-69
2022/09/01 00:11:29;;;;;;;0.20;0.20;;;;;;;17.83;61.90;102439.59;1982076;29;20058;-69
2022/09/01 00:12:33;;;;;;;0.20;0.20;;;;;;;17.85;61.45;102441.97;1978686;29;20108;-69
2022/09/01 00:13:36;;;;;;;0.30;0.30;;;;;;;17.82;61.54;102437.97;1986316;29;20043;-69
2022/09/01 00:14:39;;;;;;;0.30;0.30;;;;;;;17.83;61.77;102446.97;1986025;29;20059;-70
2022/09/01 00:15:43;;;;;;;0.30;0.30;;;;;;;17.76;61.47;102439.38;1985310;29;20112;-69
2022/09/01 00:16:45;;;;;;;0.20;0.20;;;;;;;17.74;61.69;102444.41;1987537;29;20526;-70
2022/09/01 00:17:54;;;;;;;0.20;0.20;;;;;;;17.66;61.92;102447.31;1983428;29;20126;-70
2022/09/01 00:18:56;;;;;;;0.30;0.30;;;;;;;17.61;61.81;102440.16;1979235;29;20424;-69
2022/09/01 00:19:59;;;;;;;0.30;0.30;;;;;;;17.55;62.22;102441.53;1986450;29;20200;-70
2022/09/01 00:21:01;;;;;;;0.20;0.20;;;;;;;17.52;62.20;102447.69;1989919;29;20138;-70
2022/09/01 00:22:06;;;;;;;0.20;0.20;;;;;;;17.50;62.27;102439.06;1989580;29;20061;-70
2022/09/01 00:23:09;;;;;;;0.10;0.10;;;;;;;17.45;62.45;102442.06;1989815;29;20059;-69
2022/09/01 00:24:13;;;;;;;0.20;0.20;;;;;;;17.46;62.24;102440.09;1986777;29;20062;-70
2022/09/01 00:25:18;;;;;;;0.25;0.25;;;;;;;17.34;62.82;102435.47;1983046;29;20420;-69
2022/09/01 00:26:21;;;;;;;0.20;0.20;;;;;;;17.26;62.73;102439.13;1981736;29;20097;-70
2022/09/01 00:27:24;;;;;;;0.30;0.30;;;;;;;17.26;62.96;102438.34;1980846;29;20135;-70
2022/09/01 00:28:33;;;;;;;0.20;0.20;;;;;;;17.25;62.97;102442.22;1986509;29;20055;-70
2022/09/01 00:29:36;;;;;;;0.20;0.20;;;;;;;17.23;62.92;102441.75;1990256;29;20063;-70
2022/09/01 00:30:44;;;;;;;0.20;0.20;;;;;;;17.18;62.95;102442.00;1983891;29;20067;-70
2022/09/01 00:31:47;;;;;;;0.20;0.20;;;;;;;17.17;62.99;102448.59;1983914;29;20063;-69
2022/09/01 00:32:49;;;;;;;0.30;0.30;;;;;;;17.13;63.26;102444.97;1986753;29;20062;-69
2022/09/01 00:33:52;;;;;;;0.22;0.22;;;;;;;17.11;63.21;102437.13;1985946;29;20125;-70
2022/09/01 00:34:54;;;;;;;0.20;0.20;;;;;;;17.10;63.38;102445.66;1994310;29;20141;-70
2022/09/01 00:35:57;;;;;;;0.20;0.20;;;;;;;17.10;63.35;102446.47;1989959;29;20422;-70
2022/09/01 00:36:59;;;;;;;0.25;0.25;;;;;;;17.12;63.11;102446.13;1983923;29;20638;-69
2022/09/01 00:38:02;;;;;;;0.20;0.20;;;;;;;17.14;63.06;102439.16;1988173;29;20133;-70
2022/09/01 00:39:06;;;;;;;0.20;0.20;;;;;;;17.19;62.64;102440.84;1984067;29;20058;-70
2022/09/01 00:40:12;;;;;;;0.20;0.20;;;;;;;17.18;62.82;102442.00;1978889;30;20059;-69
2022/09/01 00:41:15;;;;;;;0.20;0.20;;;;;;;17.21;62.64;102446.75;1979681;29;20138;-69
2022/09/01 00:42:18;;;;;;;0.20;0.20;;;;;;;17.27;62.29;102453.56;1985860;29;20053;-70
2022/09/01 00:43:22;;;;;;;0.20;0.20;;;;;;;17.27;62.43;102453.56;1988386;29;20063;-69
2022/09/01 00:44:27;;;;;;;0.22;0.22;;;;;;;17.32;62.24;102453.31;1983268;29;20094;-69
2022/09/01 00:45:32;;;;;;;0.30;0.30;;;;;;;17.32;62.25;102453.31;1988743;29;20050;-70
2022/09/01 00:46:38;;;;;;;0.20;0.20;;;;;;;17.34;62.06;102446.38;1985576;29;20528;-70
2022/09/01 00:47:50;;;;;;;0.30;0.30;;;;;;;17.33;61.98;102441.28;1985951;29;20452;-70
2022/09/01 00:48:57;;;;;;;0.30;0.30;;;;;;;17.37;61.86;102444.88;1989443;29;20058;-70
2022/09/01 00:49:59;;;;;;;0.30;0.30;;;;;;;17.34;61.83;102440.13;1988092;29;20050;-70
2022/09/01 00:51:03;;;;;;;0.30;0.30;;;;;;;17.32;61.66;102439.66;1990831;29;20062;-70
2022/09/01 00:52:08;;;;;;;0.30;0.30;;;;;;;17.30;61.77;102450.16;1986889;29;20472;-70
2022/09/01 00:53:12;;;;;;;0.20;0.20;;;;;;;17.27;61.87;102446.19;1979236;29;20070;-70
2022/09/01 00:54:19;;;;;;;0.20;0.20;;;;;;;17.28;61.69;102455.16;1979491;29;20051;-70
2022/09/01 00:55:25;;;;;;;0.30;0.30;;;;;;;17.26;61.78;102444.59;1979353;29;20054;-70
2022/09/01 00:56:29;;;;;;;0.20;0.20;;;;;;;17.24;61.90;102448.78;1980113;29;20484;-69
2022/09/01 00:57:32;;;;;;;0.20;0.20;;;;;;;17.25;61.89;102448.44;1993947;29;20054;-69
2022/09/01 00:58:36;;;;;;;0.30;0.30;;;;;;;17.24;61.75;102440.59;1989932;29;20053;-70
2022/09/01 00:59:45;;;;;;;0.20;0.20;;;;;;;17.20;61.74;102439.72;1982671;29;20066;-70
2022/09/01 01:00:50;;;;;;;0.20;0.20;;;;;;;17.20;61.70;102435.06;1979711;29;20094;-70
2022/09/01 01:01:52;;;;;;;0.30;0.30;;;;;;;17.21;61.76;102438.56;1979557;29;20058;-70
2022/09/01 01:02:55;;;;;;;0.30;0.30;;;;;;;17.19;61.68;102438.91;1979214;29;20207;-69
2022/09/01 01:04:01;;;;;;;0.30;0.30;;;;;;;17.15;62.15;102439.97;1978612;30;20055;-70
2022/09/01 01:05:05;;;;;;;0.22;0.22;;;;;;;17.14;61.82;102443.84;1980791;29;20777;-70
2022/09/01 01:06:08;;;;;;;0.20;0.20;;;;;;;17.10;62.13;102435.53;1979568;29;20052;-69
2022/09/01 01:07:12;;;;;;;0.30;0.30;;;;;;;17.07;62.13;102438.97;1979470;29;20131;-70
2022/09/01 01:08:17;;;;;;;0.30;0.30;;;;;;;17.05;62.08;102427.59;1984625;29;20057;-69
2022/09/01 01:09:22;;;;;;;0.30;0.30;;;;;;;17.06;61.87;102433.84;1979276;29;20059;-70
2022/09/01 01:10:25;;;;;;;0.20;0.20;;;;;;;17.04;61.82;102436.94;1979205;29;20117;-70
2022/09/01 01:11:32;;;;;;;0.30;0.30;;;;;;;17.01;61.94;102431.38;1986630;29;20066;-69
2022/09/01 01:12:39;;;;;;;0.30;0.30;;;;;;;16.96;62.15;102435.13;1989366;29;20059;-70
2022/09/01 01:13:50;;;;;;;0.30;0.30;;;;;;;16.96;62.27;102428.88;1980236;29;20111;-70
2022/09/01 01:14:53;;;;;;;0.30;0.30;;;;;;;16.98;62.24;102427.38;1989041;29;20557;-70
2022/09/01 01:15:58;;;;;;;0.30;0.30;;;;;;;17.01;62.32;102431.38;1985668;29;20134;-70
2022/09/01 01:17:00;;;;;;;0.30;0.30;;;;;;;16.99;62.15;102428.97;1979801;29;20094;-70
2022/09/01 01:18:03;;;;;;;0.30;0.30;;;;;;;16.99;62.13;102430.91;1980777;29;20192;-70
2022/09/01 01:23:00;;;;;;;0.30;0.30;;;;;;;16.97;62.01;102430.44;1984564;29;20532;-70
2022/09/01 01:23:28;;;;;;;0.20;0.20;;;;;;;16.83;62.33;102424.56;1967805;30;20052;-70
2022/09/01 01:24:33;;;;;;;0.30;0.30;;;;;;;16.86;62.22;102423.88;1974092;29;20208;-70
2022/09/01 01:25:40;;;;;;;0.30;0.30;;;;;;;16.88;62.21;102427.88;1984266;29;20472;-70
2022/09/01 01:26:43;;;;;;;0.30;0.30;;;;;;;16.91;62.32;102427.19;1992546;29;20055;-69
2022/09/01 01:27:47;;;;;;;0.28;0.28;;;;;;;16.94;62.10;102426.50;1981077;29;20054;-70
2022/09/01 01:28:53;;;;;;;0.30;0.30;;;;;;;16.95;61.98;102428.06;1983187;29;20063;-70
2022/09/01 01:29:57;;;;;;;0.30;0.30;;;;;;;16.96;61.96;102428.88;1984895;29;20063;-70
2022/09/01 01:31:03;;;;;;;0.30;0.30;;;;;;;16.98;61.58;102426.59;1978278;29;20129;-70
2022/09/01 01:32:11;;;;;;;0.30;0.30;;;;;;;16.93;62.15;102424.09;1978482;29;20051;-70
2022/09/01 01:33:13;;;;;;;0.20;0.20;;;;;;;16.94;61.98;102431.13;1978579;30;20063;-70
2022/09/01 01:34:18;;;;;;;0.17;0.17;;;;;;;16.94;62.00;102431.13;1975297;29;20100;-70
2022/09/01 01:35:22;;;;;;;0.20;0.20;;;;;;;16.94;62.07;102421.03;1973655;30;20506;-70
2022/09/01 01:36:31;;;;;;;0.28;0.28;;;;;;;16.96;62.01;102428.88;1977936;29;20059;-70
2022/09/01 01:37:35;;;;;;;0.30;0.30;;;;;;;16.92;62.22;102431.50;1982403;29;20112;-70
2022/09/01 01:38:42;;;;;;;0.25;0.25;;;;;;;16.93;62.11;102435.03;1978818;29;20055;-69
2022/09/01 01:39:47;;;;;;;0.38;0.38;;;;;;;16.96;62.00;102426.13;1978985;29;20063;-70
2022/09/01 01:40:52;;;;;;;0.20;0.20;;;;;;;16.94;62.08;102426.50;1989081;29;20063;-69
2022/09/01 01:41:57;;;;;;;0.25;0.25;;;;;;;16.95;62.11;102430.03;1985609;29;20088;-70
2022/09/01 01:43:00;;;;;;;0.30;0.30;;;;;;;16.97;61.91;102425.00;1986702;29;20086;-70
2022/09/01 01:44:04;;;;;;;0.40;0.40;;;;;;;16.97;62.10;102435.91;1983544;29;20058;-69
2022/09/01 01:45:11;;;;;;;0.20;0.20;;;;;;;16.99;61.92;102428.19;1979562;29;20047;-69
2022/09/01 01:46:14;;;;;;;0.30;0.30;;;;;;;16.99;61.91;102433.63;1986254;29;20054;-69
2022/09/01 01:47:19;;;;;;;0.30;0.30;;;;;;;16.96;62.01;102439.78;1984367;29;20054;-69
2022/09/01 01:48:22;;;;;;;0.30;0.30;;;;;;;16.97;61.89;102431.25;1984509;29;20169;-69
2022/09/01 01:49:29;;;;;;;0.30;0.30;;;;;;;16.96;61.94;102428.88;1978463;29;20109;-69
2022/09/01 01:50:34;;;;;;;0.30;0.30;;;;;;;16.94;61.83;102431.13;1977023;29;20082;-68
2022/09/01 01:51:38;;;;;;;0.30;0.30;;;;;;;16.94;62.01;102431.94;1986067;29;20061;-69
2022/09/01 01:52:41;;;;;;;0.30;0.30;;;;;;;16.92;62.07;102433.44;1972734;30;20075;-69
2022/09/01 01:53:51;;;;;;;0.30;0.30;;;;;;;16.93;61.90;102429.56;1974746;29;20095;-69
2022/09/01 01:54:55;;;;;;;0.30;0.30;;;;;;;16.94;61.95;102431.94;1985303;29;20713;-69
2022/09/01 01:55:58;;;;;;;0.40;0.40;;;;;;;16.94;61.96;102425.69;1986719;29;20054;-69
2022/09/01 01:57:04;;;;;;;0.30;0.30;;;;;;;16.96;61.75;102428.88;1979640;29;20184;-69
2022/09/01 01:58:08;;;;;;;0.35;0.35;;;;;;;16.98;61.58;102426.59;1981034;29;20089;-69
2022/09/01 01:59:15;;;;;;;0.30;0.30;;;;;;;16.96;61.91;102434.31;1977575;29;20067;-69
2022/09/01 02:00:21;;;;;;;0.30;0.30;;;;;;;16.98;61.92;102432.06;1979272;29;20134;-69
2022/09/01 02:01:32;;;;;;;0.30;0.30;;;;;;;16.92;61.80;102427.97;1982977;29;20059;-69
2022/09/01 02:02:36;;;;;;;0.30;0.30;;;;;;;16.92;61.80;102434.22;1980228;29;20138;-69
2022/09/01 02:03:40;;;;;;;0.30;0.30;;;;;;;16.93;62.04;102432.28;1988195;29;20066;-69
2022/09/01 02:04:42;;;;;;;0.20;0.20;;;;;;;16.94;61.89;102436.59;1982448;29;20052;-69
2022/09/01 02:05:47;;;;;;;0.20;0.20;;;;;;;16.96;61.94;102434.31;1975221;30;20474;-69
2022/09/01 02:06:50;;;;;;;0.30;0.30;;;;;;;16.96;61.53;102434.31;1984577;29;20137;-69
2022/09/01 02:07:55;;;;;;;0.30;0.30;;;;;;;16.98;61.62;102442.97;1980936;29;20066;-69
2022/09/01 02:09:02;;;;;;;0.30;0.30;;;;;;;16.96;61.57;102424.22;1965536;30;20457;-69
2022/09/01 02:10:06;;;;;;;0.30;0.30;;;;;;;16.97;61.73;102425.78;1979493;29;20419;-69
2022/09/01 02:11:08;;;;;;;0.30;0.30;;;;;;;16.96;61.71;102431.59;1984304;29;20138;-69
2022/09/01 02:12:11;;;;;;;0.30;0.30;;;;;;;16.98;61.65;102426.59;1986679;29;20137;-69
2022/09/01 02:13:19;;;;;;;0.30;0.30;;;;;;;16.93;61.69;102430.38;1984554;29;20542;-69
2022/09/01 02:14:23;;;;;;;0.30;0.30;;;;;;;16.94;61.82;102422.97;1981957;29;20558;-69
2022/09/01 02:15:25;;;;;;;0.38;0.38;;;;;;;16.88;61.87;102430.59;1986754;29;20111;-70
2022/09/01 02:16:31;;;;;;;0.30;0.30;;;;;;;16.91;61.83;102426.38;1985039;29;20113;-69
2022/09/01 02:17:34;;;;;;;0.30;0.30;;;;;;;16.88;61.87;102430.59;1979574;29;20048;-68
2022/09/01 02:18:40;;;;;;;0.30;0.30;;;;;;;16.85;61.86;102430.50;1985804;29;20089;-68
2022/09/01 02:19:42;;;;;;;0.22;0.22;;;;;;;16.83;61.91;102427.28;1990634;29;20586;-68
2022/09/01 02:20:48;;;;;;;0.20;0.20;;;;;;;16.81;62.19;102424.91;1987810;29;20138;-69
2022/09/01 02:21:55;;;;;;;0.35;0.35;;;;;;;16.77;62.20;102425.94;1988399;29;20142;-69
2022/09/01 02:23:09;;;;;;;0.40;0.40;;;;;;;16.76;62.12;102424.38;1983867;29;20141;-69
2022/09/01 02:24:12;;;;;;;0.30;0.30;;;;;;;16.75;62.37;102420.03;1984033;29;20087;-69
2022/09/01 02:25:18;;;;;;;0.30;0.30;;;;;;;16.74;62.16;102422.00;1991452;29;20485;-69
2022/09/01 02:26:22;;;;;;;0.30;0.30;;;;;;;16.68;62.58;102423.34;1983496;29;20055;-69
2022/09/01 02:27:28;;;;;;;0.30;0.30;;;;;;;16.71;62.31;102428.13;1987466;29;20055;-69
2022/09/01 02:28:33;;;;;;;0.35;0.35;;;;;;;16.72;62.48;102418.00;1982011;29;20074;-69
2022/09/01 02:29:37;;;;;;;0.35;0.35;;;;;;;16.76;62.44;102424.38;1983678;29;20058;-70
2022/09/01 02:30:48;;;;;;;0.30;0.30;;;;;;;16.74;62.49;102418.47;1984603;29;20062;-65
2022/09/01 02:31:53;;;;;;;0.30;0.30;;;;;;;16.77;62.71;102421.31;1991407;29;20478;-65
2022/09/01 02:32:57;;;;;;;0.30;0.30;;;;;;;16.74;62.38;102422.00;1972438;29;20044;-64
2022/09/01 02:34:00;;;;;;;0.30;0.30;;;;;;;16.77;62.06;102423.22;1984958;29;20214;-65
2022/09/01 02:35:06;;;;;;;0.30;0.30;;;;;;;16.80;61.74;102415.16;1980478;29;20059;-65
2022/09/01 02:36:12;;;;;;;0.40;0.40;;;;;;;16.78;61.91;102411.97;1981225;29;20401;-65
2022/09/01 02:37:14;;;;;;;0.40;0.40;;;;;;;16.74;62.35;102421.19;1981498;29;20071;-65
2022/09/01 02:38:19;;;;;;;0.30;0.30;;;;;;;16.76;62.20;102421.66;1979112;29;20058;-65
2022/09/01 02:39:25;;;;;;;0.38;0.38;;;;;;;16.77;61.87;102421.31;1985759;29;20051;-64
2022/09/01 02:40:30;;;;;;;0.30;0.30;;;;;;;16.74;62.26;102423.91;1989149;29;20043;-64
2022/09/01 02:41:33;;;;;;;0.35;0.35;;;;;;;16.72;62.25;102418.00;1984924;29;20051;-64
2022/09/01 02:42:39;;;;;;;0.30;0.30;;;;;;;16.71;62.13;102419.94;1975111;29;20055;-64
2022/09/01 02:43:43;;;;;;;0.30;0.30;;;;;;;16.68;62.33;102411.66;1973624;29;20433;-64
2022/09/01 02:44:46;;;;;;;0.35;0.35;;;;;;;16.66;62.40;102419.38;1972033;30;20113;-64
2022/09/01 02:45:54;;;;;;;0.30;0.30;;;;;;;16.68;62.29;102415.16;1990453;29;20055;-65
2022/09/01 02:47:00;;;;;;;0.30;0.30;;;;;;;16.69;62.30;102413.22;1986751;29;20059;-64
2022/09/01 02:48:06;;;;;;;0.30;0.30;;;;;;;16.71;62.13;102419.94;1981553;29;20067;-64
2022/09/01 02:49:16;;;;;;;0.32;0.32;;;;;;;16.72;62.27;102412.53;1979274;29;20577;-65
2022/09/01 02:50:18;;;;;;;0.30;0.30;;;;;;;16.73;62.11;102416.88;1984725;29;20067;-64
2022/09/01 02:51:24;;;;;;;0.30;0.30;;;;;;;16.74;62.27;102418.47;1985298;29;20055;-64
2022/09/01 02:52:28;;;;;;;0.30;0.30;;;;;;;16.75;62.09;102417.31;1990337;29;20098;-65
2022/09/01 02:53:34;;;;;;;0.30;0.30;;;;;;;16.75;61.98;102417.31;1989025;29;20055;-65
2022/09/01 02:54:37;;;;;;;0.30;0.30;;;;;;;16.75;62.19;102411.84;1987444;29;20115;-64
2022/09/01 02:55:41;;;;;;;0.30;0.30;;;;;;;16.73;62.09;102414.94;1992020;29;20089;-65
2022/09/01 02:56:47;;;;;;;0.20;0.20;;;;;;;16.74;61.93;102413.00;1989324;29;20054;-64
2022/09/01 02:57:55;;;;;;;0.20;0.20;;;;;;;16.72;61.76;102418.00;1975261;29;20060;-64
2022/09/01 02:59:00;;;;;;;0.30;0.30;;;;;;;16.65;62.10;102413.13;1975005;30;20063;-65
2022/09/01 03:00:19;;;;;;;0.20;0.20;;;;;;;16.71;61.82;102417.22;1983613;29;20115;-64
2022/09/01 03:01:24;;;;;;;0.30;0.30;;;;;;;16.69;61.90;102418.69;1979862;29;20051;-64
2022/09/01 03:02:27;;;;;;;0.30;0.30;;;;;;;16.66;62.27;102408.47;1980340;29;20062;-65
2022/09/01 03:03:29;;;;;;;0.28;0.28;;;;;;;16.66;61.94;102413.91;1979301;30;20082;-64
2022/09/01 03:04:33;;;;;;;0.20;0.20;;;;;;;16.62;62.04;102407.56;1979220;29;20047;-64
2022/09/01 03:05:38;;;;;;;0.30;0.30;;;;;;;16.61;61.94;102414.16;1980894;29;20093;-64
2022/09/01 03:06:41;;;;;;;0.22;0.22;;;;;;;16.56;62.30;102409.72;1979452;29;20055;-64
2022/09/01 03:07:43;;;;;;;0.20;0.20;;;;;;;16.56;62.21;102414.38;1976606;29;20087;-64
2022/09/01 03:08:47;;;;;;;0.20;0.20;;;;;;;16.59;61.88;102413.69;1986762;29;20066;-64
2022/09/01 03:09:49;;;;;;;0.30;0.30;;;;;;;16.55;62.19;102412.81;1979201;29;20086;-65
2022/09/01 03:10:53;;;;;;;0.22;0.22;;;;;;;16.59;62.05;102416.41;1976263;29;20047;-64
2022/09/01 03:11:55;;;;;;;0.30;0.30;;;;;;;16.57;62.30;102410.53;1978640;29;20115;-64
2022/09/01 03:13:01;;;;;;;0.25;0.25;;;;;;;16.57;61.92;102414.03;1973159;29;20055;-65
2022/09/01 03:14:04;;;;;;;0.30;0.30;;;;;;;16.56;62.21;102419.84;1972138;30;20067;-64
2022/09/01 03:15:07;;;;;;;0.25;0.25;;;;;;;16.50;62.37;102413.81;1981131;29;20516;-64
2022/09/01 03:16:14;;;;;;;0.30;0.30;;;;;;;16.48;62.12;102415.28;1986323;29;20134;-64
2022/09/01 03:17:20;;;;;;;0.40;0.40;;;;;;;16.48;62.26;102418.00;1985964;29;20089;-64
2022/09/01 03:18:22;;;;;;;0.28;0.28;;;;;;;16.47;62.29;102416.44;1980757;29;20087;-64
2022/09/01 03:19:25;;;;;;;0.20;0.20;;;;;;;16.46;62.31;102423.81;1979537;29;20066;-64
2022/09/01 03:20:29;;;;;;;0.30;0.30;;;;;;;16.47;62.43;102411.78;1986423;29;20050;-64
2022/09/01 03:21:32;;;;;;;0.30;0.30;;;;;;;16.47;62.34;102411.78;1985813;29;20599;-64
2022/09/01 03:22:34;;;;;;;0.30;0.30;;;;;;;16.47;62.11;102417.25;1984617;29;20114;-64
2022/09/01 03:23:37;;;;;;;0.30;0.30;;;;;;;16.47;62.31;102413.72;1980600;29;20124;-64
2022/09/01 03:24:39;;;;;;;0.30;0.30;;;;;;;16.47;62.19;102424.63;1982150;29;20183;-65
2022/09/01 03:25:44;;;;;;;0.30;0.30;;;;;;;16.45;62.44;102414.06;1992218;29;20082;-64
2022/09/01 03:26:49;;;;;;;0.30;0.30;;;;;;;16.46;62.49;102412.91;1988211;29;20134;-64
2022/09/01 03:27:53;;;;;;;0.25;0.25;;;;;;;16.41;62.52;102411.19;1986196;29;20532;-64
2022/09/01 03:28:55;;;;;;;0.30;0.30;;;;;;;16.44;62.38;102415.16;1981373;29;20485;-64
2022/09/01 03:29:58;;;;;;;0.30;0.30;;;;;;;16.41;62.58;102416.63;1981002;29;20810;-64
2022/09/01 03:31:00;;;;;;;0.30;0.30;;;;;;;16.37;62.70;102413.00;1980147;29;20059;-64
2022/09/01 03:32:05;;;;;;;0.30;0.30;;;;;;;16.38;62.63;102420.03;1985843;29;20063;-64
2022/09/01 03:33:07;;;;;;;0.30;0.30;;;;;;;16.42;62.60;102420.16;1978891;29;20090;-64
2022/09/01 03:34:11;;;;;;;0.30;0.30;;;;;;;16.39;62.74;102416.16;1985311;29;20058;-64
2022/09/01 03:35:19;;;;;;;;;;;;;;;16.21;63.38;102414.81;1979905;29;20090;-65
2022/09/01 03:36:23;;;;;;;0.30;0.30;;;;;;;16.29;63.05;102416.66;1984034;29;20429;-65
2022/09/01 03:37:25;;;;;;;0.20;0.20;;;;;;;16.33;63.01;102414.81;1985872;29;20496;-64
2022/09/01 03:38:30;;;;;;;0.35;0.35;;;;;;;16.35;62.91;102418.00;1975532;29;20052;-64
2022/09/01 03:39:32;;;;;;;0.30;0.30;;;;;;;16.38;62.67;102420.03;1966066;30;20059;-64
2022/09/01 03:40:37;;;;;;;0.30;0.30;;;;;;;16.40;62.71;102414.25;1980778;29;20063;-66
2022/09/01 03:41:39;;;;;;;0.20;0.20;;;;;;;16.37;63.31;102412.22;1980187;29;20055;-66
2022/09/01 03:42:45;;;;;;;0.20;0.20;;;;;;;16.42;62.70;102409.25;1970503;30;20103;-64
2022/09/01 03:43:47;;;;;;;0.28;0.28;;;;;;;16.39;63.17;102410.72;1971439;30;20056;-64
2022/09/01 03:44:50;;;;;;;0.30;0.30;;;;;;;16.39;63.04;102408.00;1979143;29;20141;-66
2022/09/01 03:45:54;;;;;;;0.28;0.28;;;;;;;16.41;62.97;102408.44;1986493;29;20069;-66
2022/09/01 03:47:00;;;;;;;0.25;0.25;;;;;;;16.40;63.08;102400.63;1979411;29;20055;-65
2022/09/01 03:48:07;;;;;;;0.30;0.30;;;;;;;16.41;63.19;102404.94;1979952;29;20119;-64
2022/09/01 03:49:14;;;;;;;0.30;0.30;;;;;;;16.41;63.13;102404.94;1975543;29;20162;-64
2022/09/01 03:50:20;;;;;;;0.20;0.20;;;;;;;16.42;62.99;102410.06;1972837;30;20060;-65
2022/09/01 03:51:23;;;;;;;0.20;0.20;;;;;;;16.41;63.29;102400.28;1969843;29;20138;-64
2022/09/01 03:52:28;;;;;;;0.28;0.28;;;;;;;16.43;63.35;102406.19;1979640;29;20427;-64
2022/09/01 03:53:36;;;;;;;0.30;0.30;;;;;;;16.46;63.18;102403.97;1985756;29;20101;-65
2022/09/01 03:54:39;;;;;;;0.30;0.30;;;;;;;16.43;63.26;102403.47;1989970;29;20622;-64
2022/09/01 03:55:44;;;;;;;0.30;0.30;;;;;;;16.45;63.19;102400.44;1972897;29;20056;-65
2022/09/01 03:56:48;;;;;;;0.30;0.30;;;;;;;16.39;63.62;102391.63;1982243;29;20062;-65
2022/09/01 03:57:54;;;;;;;0.20;0.20;;;;;;;16.42;63.49;102396.44;1981003;29;20423;-65
2022/09/01 03:58:59;;;;;;;0.20;0.20;;;;;;;16.41;63.34;102397.56;1974318;29;20520;-66
2022/09/01 04:00:04;;;;;;;0.20;0.20;;;;;;;16.41;63.49;102397.56;1978934;29;20143;-65
2022/09/01 04:01:15;;;;;;;0.30;0.30;;;;;;;16.36;63.80;102405.19;1990503;29;20502;-65
2022/09/01 04:02:19;;;;;;;0.30;0.30;;;;;;;16.36;63.79;102400.50;1987158;29;20108;-64
2022/09/01 04:03:25;;;;;;;0.30;0.30;;;;;;;16.34;63.94;102391.88;1989509;29;20058;-64
2022/09/01 04:04:33;;;;;;;0.20;0.20;;;;;;;16.29;63.99;102392.13;1981125;29;20054;-64
2022/09/01 04:05:36;;;;;;;0.28;0.28;;;;;;;16.31;63.87;102392.56;1981538;29;20055;-64
2022/09/01 04:06:39;;;;;;;0.30;0.30;;;;;;;16.30;64.01;102395.63;1979752;29;20921;-65
2022/09/01 04:07:47;;;;;;;0.20;0.20;;;;;;;16.27;64.34;102399.03;1978671;29;20175;-64
2022/09/01 04:08:52;;;;;;;0.20;0.20;;;;;;;16.26;64.13;102400.16;1981084;29;20088;-65
2022/09/01 04:09:54;;;;;;;0.20;0.20;;;;;;;16.25;64.30;102398.59;1984695;29;20097;-65
2022/09/01 04:11:01;;;;;;;0.20;0.20;;;;;;;16.27;64.10;102397.09;1987039;29;20058;-64
2022/09/01 04:12:07;;;;;;;0.30;0.30;;;;;;;16.26;64.07;102395.53;1974968;29;20067;-64
2022/09/01 04:13:13;;;;;;;0.30;0.30;;;;;;;16.25;64.34;102393.91;1974039;29;20096;-64
2022/09/01 04:14:16;;;;;;;0.30;0.30;;;;;;;16.23;64.41;102393.47;1984754;29;20059;-64
2022/09/01 04:15:21;;;;;;;0.30;0.30;;;;;;;16.23;64.34;102390.75;1985953;29;20058;-64
2022/09/01 04:18:08;;;;;;;0.30;0.30;;;;;;;16.17;64.30;102386.66;1973904;29;20443;-65
2022/09/01 04:19:18;;;;;;;0.20;0.20;;;;;;;16.16;64.38;102379.63;1987864;29;20054;-64
2022/09/01 04:20:22;;;;;;;;;;;;;;;16.00;65.11;102386.88;1977887;29;20187;-65
2022/09/01 04:21:25;;;;;;;0.32;0.32;;;;;;;16.11;64.54;102384.50;1971451;30;20398;-64
2022/09/01 04:22:30;;;;;;;0.30;0.30;;;;;;;16.11;64.53;102393.47;1972671;29;20051;-64
2022/09/01 04:23:35;;;;;;;0.30;0.30;;;;;;;16.15;64.54;102385.41;1973751;29;20539;-64
2022/09/01 04:24:46;;;;;;;0.30;0.30;;;;;;;16.11;64.81;102393.47;1979147;29;20055;-64
2022/09/01 04:25:51;;;;;;;0.30;0.30;;;;;;;16.10;64.74;102391.88;1981378;29;20055;-65
2022/09/01 04:26:55;;;;;;;0.30;0.30;;;;;;;16.09;64.61;102389.50;1982649;29;20058;-64
2022/09/01 04:27:57;;;;;;;0.30;0.30;;;;;;;16.09;64.61;102389.50;1971923;30;20094;-64
2022/09/01 04:29:01;;;;;;;0.40;0.40;;;;;;;16.09;64.67;102395.72;1973464;29;20170;-64
2022/09/01 04:30:04;;;;;;;0.40;0.40;;;;;;;16.07;64.65;102386.31;1974816;29;20063;-64
2022/09/01 04:31:18;;;;;;;0.30;0.30;;;;;;;16.03;64.72;102388.91;1972213;30;20055;-64
2022/09/01 04:32:23;;;;;;;0.35;0.35;;;;;;;15.99;65.19;102392.66;1979059;29;20070;-64
2022/09/01 04:33:33;;;;;;;0.40;0.40;;;;;;;16.00;65.07;102403.22;1983638;29;20448;-64
2022/09/01 04:34:39;;;;;;;0.30;0.30;;;;;;;15.99;65.00;102393.47;1978659;29;20059;-64
2022/09/01 04:35:42;;;;;;;0.38;0.38;;;;;;;15.97;65.30;102390.28;1973019;30;20060;-64
2022/09/01 04:36:45;;;;;;;0.40;0.40;;;;;;;15.96;65.17;102396.88;1979293;29;20117;-64
2022/09/01 04:37:51;;;;;;;0.40;0.40;;;;;;;15.97;65.06;102397.63;1985641;29;20412;-64
2022/09/01 04:38:56;;;;;;;0.40;0.40;;;;;;;15.97;65.11;102392.19;1985118;29;20090;-65
2022/09/01 04:39:59;;;;;;;0.30;0.30;;;;;;;15.96;65.22;102396.06;1981573;29;20496;-64
2022/09/01 04:41:05;;;;;;;0.40;0.40;;;;;;;15.95;65.02;102395.25;1982471;29;20087;-65
2022/09/01 04:42:08;;;;;;;0.30;0.30;;;;;;;15.92;64.95;102387.75;1983446;29;20135;-64
2022/09/01 04:43:11;;;;;;;0.30;0.30;;;;;;;15.94;64.94;102388.22;1976405;29;20231;-64
2022/09/01 04:44:15;;;;;;;0.30;0.30;;;;;;;15.94;65.40;102393.69;1978205;29;20412;-64
2022/09/01 04:45:24;;;;;;;0.30;0.30;;;;;;;15.94;65.03;102390.94;1971710;30;20060;-64
2022/09/01 04:46:28;;;;;;;0.30;0.30;;;;;;;15.93;65.26;102392.09;1978305;29;20572;-64
2022/09/01 04:47:30;;;;;;;0.40;0.40;;;;;;;15.92;65.08;102390.50;1980202;29;20134;-63
2022/09/01 04:48:41;;;;;;;0.30;0.30;;;;;;;15.88;65.24;102389.59;1980865;29;20054;-64
2022/09/01 04:49:48;;;;;;;0.40;0.40;;;;;;;15.87;64.96;102387.97;1976446;29;21072;-64
2022/09/01 04:50:52;;;;;;;0.40;0.40;;;;;;;15.87;65.58;102392.66;1973149;29;20051;-64
2022/09/01 04:52:00;;;;;;;0.40;0.40;;;;;;;15.86;65.45;102386.41;1978541;30;20071;-64
2022/09/01 04:53:05;;;;;;;0.43;0.43;;;;;;;15.88;65.24;102389.59;1982648;29;20059;-64
2022/09/01 04:54:17;;;;;;;0.40;0.40;;;;;;;15.86;65.38;102391.03;1986937;29;20081;-64
2022/09/01 04:55:21;;;;;;;0.40;0.40;;;;;;;15.85;65.50;102395.72;1978031;30;20051;-64
2022/09/01 04:56:29;;;;;;;0.40;0.40;;;;;;;15.86;65.53;102394.56;1977258;29;20480;-65
2022/09/01 04:57:48;;;;;;;0.40;0.40;;;;;;;15.82;65.51;102390.94;1976491;29;20153;-64
2022/09/01 04:58:54;;;;;;;0.50;0.50;;;;;;;15.82;65.40;102388.22;1972578;29;20397;-64
2022/09/01 04:59:58;;;;;;;0.50;0.50;;;;;;;15.83;65.58;102389.00;1993010;29;20062;-64
2022/09/01 05:01:02;;;;;;;0.50;0.50;;;;;;;15.80;65.52;102387.75;1983403;29;20133;-64
2022/09/01 05:02:08;;;;;;;0.40;0.40;;;;;;;15.80;65.79;102385.03;1981143;29;20532;-64
2022/09/01 05:03:11;;;;;;;0.40;0.40;;;;;;;15.77;65.88;102383.00;1982342;29;20062;-64
2022/09/01 05:04:32;;;;;;;0.40;0.40;;;;;;;15.77;65.49;102388.44;1984350;29;20078;-64
2022/09/01 05:05:38;;;;;;;0.40;0.40;;;;;;;15.77;65.84;102390.34;1972552;29;20044;-64
2022/09/01 05:06:42;;;;;;;0.40;0.40;;;;;;;15.74;65.90;102380.94;1978807;29;20058;-65
2022/09/01 05:07:45;;;;;;;0.40;0.40;;;;;;;15.75;65.93;102385.25;1983802;29;20074;-64